createdAt,value
2018-12-06T00:01:04.945Z,22.90
2018-12-06T00:03:35.610Z,23.00
2018-12-06T00:06:04.382Z,22.40
2018-12-06T00:08:34.973Z,23.17
2018-12-06T00:11:03.444Z,23.37
2018-12-06T00:13:32.118Z,21.23
2018-12-06T00:16:00.637Z,21.97
2018-12-06T00:18:29.084Z,21.63
2018-12-06T00:20:57.587Z,22.30
2018-12-06T00:23:26.599Z,22.50
2018-12-06T00:25:55.136Z,22.57
2018-12-06T00:28:23.646Z,22.17
2018-12-06T00:30:52.154Z,22.60
2018-12-06T00:33:20.746Z,22.07
2018-12-06T00:35:49.285Z,23.13
2018-12-06T00:38:17.799Z,22.03
2018-12-06T00:40:46.368Z,21.73
2018-12-06T00:43:14.943Z,21.27
2018-12-06T00:45:43.857Z,21.53
2018-12-06T00:48:12.374Z,20.77
2018-12-06T00:50:40.846Z,21.83
2018-12-06T00:53:09.392Z,21.07
2018-12-06T00:55:38.369Z,19.93
2018-12-06T00:58:06.842Z,21.10
2018-12-06T01:00:35.462Z,21.80
2018-12-06T01:03:04.321Z,22.07
2018-12-06T01:05:32.954Z,22.63
2018-12-06T01:08:01.459Z,21.73
2018-12-06T01:10:29.973Z,24.07
2018-12-06T01:12:59.425Z,24.67
2018-12-06T01:15:27.956Z,21.90
2018-12-06T01:17:56.469Z,24.60
2018-12-06T01:20:24.971Z,24.30
2018-12-06T01:22:53.465Z,24.07
2018-12-06T01:25:21.994Z,24.47
2018-12-06T01:27:50.476Z,26.20
2018-12-06T01:30:19.011Z,24.83
2018-12-06T01:32:47.518Z,26.03
2018-12-06T01:35:16.003Z,23.17
2018-12-06T01:37:44.489Z,25.20
2018-12-06T01:40:13.064Z,25.50
2018-12-06T01:42:42.114Z,24.20
2018-12-06T01:45:10.575Z,25.23
2018-12-06T01:47:39.171Z,24.17
2018-12-06T01:50:08.026Z,24.10
2018-12-06T01:52:36.652Z,24.23
2018-12-06T01:55:05.483Z,24.13
2018-12-06T01:57:34.034Z,23.47
2018-12-06T02:00:02.641Z,24.33
2018-12-06T02:02:31.178Z,24.03
2018-12-06T02:04:59.653Z,24.40
2018-12-06T02:07:28.184Z,23.70
2018-12-06T02:09:56.932Z,24.20
2018-12-06T02:12:25.403Z,24.43
2018-12-06T02:14:53.893Z,22.53
2018-12-06T02:17:22.476Z,23.13
2018-12-06T02:19:50.956Z,22.47
2018-12-06T02:22:19.446Z,22.17
2018-12-06T02:24:48.034Z,22.13
2018-12-06T02:27:16.573Z,20.43
2018-12-06T02:29:50.321Z,22.23
2018-12-06T02:32:18.928Z,20.47
2018-12-06T02:37:21.932Z,19.73
2018-12-06T02:39:50.391Z,19.97
2018-12-06T02:42:18.902Z,20.07
2018-12-06T02:44:49.419Z,21.50
2018-12-06T02:47:17.951Z,19.83
2018-12-06T02:49:46.639Z,21.00
2018-12-06T02:52:15.237Z,20.20
2018-12-06T02:54:43.764Z,20.23
2018-12-06T02:57:12.284Z,19.30
2018-12-06T02:59:40.935Z,19.87
2018-12-06T03:02:09.378Z,20.83
2018-12-06T03:04:37.904Z,21.30
2018-12-06T03:07:06.527Z,19.80
2018-12-06T03:09:35.423Z,19.07
2018-12-06T03:12:03.960Z,19.07
2018-12-06T03:14:32.444Z,18.90
2018-12-06T03:17:00.955Z,19.00
2018-12-06T03:19:29.529Z,19.50
2018-12-06T03:21:58.065Z,20.60
2018-12-06T03:24:26.889Z,19.37
2018-12-06T03:26:55.591Z,21.50
2018-12-06T03:29:24.119Z,19.70
2018-12-06T03:31:52.708Z,18.50
2018-12-06T03:34:21.151Z,19.87
2018-12-06T03:36:50.522Z,19.33
2018-12-06T03:39:19.032Z,19.23
2018-12-06T03:41:47.686Z,18.20
2018-12-06T03:44:16.191Z,17.20
2018-12-06T03:49:21.537Z,18.30
2018-12-06T03:51:50.005Z,19.03
2018-12-06T03:54:18.864Z,18.17
2018-12-06T03:56:47.810Z,16.93
2018-12-06T03:59:16.313Z,16.53
2018-12-06T04:01:44.920Z,17.40
2018-12-06T04:04:13.488Z,17.63
2018-12-06T04:06:41.985Z,17.13
2018-12-06T04:09:10.487Z,16.60
2018-12-06T04:11:39.074Z,17.30
2018-12-06T04:14:07.570Z,17.47
2018-12-06T04:16:36.137Z,17.17
2018-12-06T04:19:04.635Z,18.03
2018-12-06T04:21:33.137Z,18.70
2018-12-06T04:24:01.655Z,20.33
2018-12-06T04:26:30.200Z,19.87
2018-12-06T04:28:58.852Z,19.43
2018-12-06T04:31:27.409Z,20.13
2018-12-06T04:33:56.775Z,18.47
2018-12-06T04:36:25.630Z,18.83
2018-12-06T04:38:54.535Z,18.87
2018-12-06T04:41:23.005Z,19.93
2018-12-06T04:43:51.477Z,19.90
2018-12-06T04:46:20.011Z,20.07
2018-12-06T04:48:48.672Z,19.60
2018-12-06T04:51:17.992Z,18.67
2018-12-06T04:53:46.479Z,19.33
2018-12-06T04:56:14.950Z,18.97
2018-12-06T04:58:43.714Z,19.57
2018-12-06T05:01:12.216Z,19.60
2018-12-06T05:03:40.717Z,18.80
2018-12-06T05:06:09.216Z,20.90
2018-12-06T05:08:37.711Z,20.20
2018-12-06T05:11:06.621Z,21.40
2018-12-06T05:13:35.096Z,21.27
2018-12-06T05:16:03.601Z,20.07
2018-12-06T05:18:32.119Z,20.50
2018-12-06T05:21:01.783Z,19.67
2018-12-06T05:23:30.267Z,19.53
2018-12-06T05:25:58.774Z,19.70
2018-12-06T05:28:27.358Z,19.97
2018-12-06T05:30:55.909Z,19.10
2018-12-06T05:33:24.490Z,19.33
2018-12-06T05:35:53.010Z,19.63
2018-12-06T05:38:21.524Z,20.37
2018-12-06T05:40:50.024Z,21.00
2018-12-06T05:43:18.539Z,19.73
2018-12-06T05:45:47.119Z,19.67
2018-12-06T05:48:15.603Z,20.77
2018-12-06T05:50:44.071Z,19.33
2018-12-06T05:53:12.621Z,20.43
2018-12-06T05:55:41.236Z,20.13
2018-12-06T05:58:09.961Z,19.60
2018-12-06T06:00:38.444Z,19.07
2018-12-06T06:03:06.949Z,20.10
2018-12-06T06:05:35.449Z,20.13
2018-12-06T06:08:04.713Z,19.37
2018-12-06T06:10:33.199Z,18.93
2018-12-06T06:13:01.686Z,19.33
2018-12-06T06:15:30.385Z,20.00
2018-12-06T06:17:58.887Z,20.67
2018-12-06T06:20:27.429Z,20.67
2018-12-06T06:22:55.870Z,21.07
2018-12-06T06:25:24.372Z,21.70
2018-12-06T06:27:52.919Z,21.33
2018-12-06T06:30:21.397Z,22.13
2018-12-06T06:32:49.914Z,21.77
2018-12-06T06:35:18.411Z,21.53
2018-12-06T06:37:46.902Z,21.07
2018-12-06T06:40:15.453Z,20.97
2018-12-06T06:42:43.985Z,20.87
2018-12-06T06:45:12.445Z,21.40
2018-12-06T06:47:40.962Z,20.30
2018-12-06T06:50:09.461Z,21.77
2018-12-06T06:52:38.024Z,20.70
2018-12-06T06:55:07.057Z,22.17
2018-12-06T06:57:35.562Z,20.40
2018-12-06T07:00:05.006Z,21.33
2018-12-06T07:02:33.499Z,20.53
2018-12-06T07:05:02.013Z,20.30
2018-12-06T07:07:30.522Z,20.20
2018-12-06T07:09:59.042Z,20.57
2018-12-06T07:12:27.568Z,20.40
2018-12-06T07:14:56.042Z,19.83
2018-12-06T07:17:24.579Z,19.17
2018-12-06T07:19:53.051Z,19.33
2018-12-06T07:22:21.518Z,21.83
2018-12-06T07:24:50.039Z,20.00
2018-12-06T07:27:19.054Z,18.93
2018-12-06T07:29:48.573Z,20.23
2018-12-06T07:32:17.280Z,21.97
2018-12-06T07:34:45.789Z,20.77
2018-12-06T07:37:14.264Z,19.03
2018-12-06T07:39:42.800Z,18.83
2018-12-06T07:42:12.311Z,18.77
2018-12-06T07:44:40.830Z,18.17
2018-12-06T07:47:11.032Z,18.67
2018-12-06T07:49:39.600Z,17.60
2018-12-06T07:52:08.295Z,19.17
2018-12-06T07:54:36.777Z,18.17
2018-12-06T07:57:05.261Z,18.77
2018-12-06T07:59:33.938Z,19.50
2018-12-06T08:02:03.011Z,18.20
2018-12-06T08:04:31.547Z,15.27
2018-12-06T08:07:00.553Z,16.47
2018-12-06T08:09:29.196Z,12.37
2018-12-06T08:11:57.727Z,8.00
2018-12-06T08:14:26.281Z,7.30
2018-12-06T08:16:54.824Z,6.67
2018-12-06T08:19:23.320Z,6.60
2018-12-06T08:21:51.836Z,6.50
2018-12-06T08:24:20.361Z,5.73
2018-12-06T08:26:49.189Z,5.47
2018-12-06T08:29:17.681Z,5.53
2018-12-06T08:31:46.804Z,5.50
2018-12-06T08:34:15.888Z,5.80
2018-12-06T08:36:44.386Z,5.37
2018-12-06T08:39:12.915Z,5.00
2018-12-06T08:41:41.649Z,5.27
2018-12-06T08:44:10.132Z,5.00
2018-12-06T08:46:38.922Z,5.00
2018-12-06T08:49:07.394Z,4.97
2018-12-06T08:51:35.872Z,5.67
2018-12-06T08:54:04.569Z,5.10
2018-12-06T08:56:33.052Z,4.43
2018-12-06T08:59:01.548Z,5.03
2018-12-06T09:01:30.140Z,4.07
2018-12-06T09:03:58.869Z,3.90
2018-12-06T09:06:27.969Z,3.87
2018-12-06T09:08:56.507Z,4.00
2018-12-06T09:11:25.109Z,4.07
2018-12-06T09:13:53.581Z,3.67
2018-12-06T09:16:22.135Z,4.10
2018-12-06T09:18:51.035Z,3.83
2018-12-06T09:21:19.606Z,3.70
2018-12-06T09:23:48.463Z,3.40
2018-12-06T09:26:17.067Z,3.30
2018-12-06T09:28:45.871Z,3.67
2018-12-06T09:31:14.767Z,3.20
2018-12-06T09:33:54.354Z,2.80
2018-12-06T09:36:22.860Z,3.13
2018-12-06T09:38:51.377Z,2.73
2018-12-06T09:41:19.962Z,2.40
2018-12-06T09:43:48.525Z,2.97
2018-12-06T09:46:17.072Z,3.07
2018-12-06T09:48:45.710Z,2.83
2018-12-06T09:51:14.203Z,2.67
2018-12-06T09:53:42.762Z,2.70
2018-12-06T09:56:11.481Z,2.57
2018-12-06T09:58:40.551Z,2.47
2018-12-06T10:01:09.086Z,2.60
2018-12-06T10:03:37.769Z,2.50
2018-12-06T10:06:06.323Z,2.40
2018-12-06T10:08:34.816Z,2.30
2018-12-06T10:11:03.333Z,2.60
2018-12-06T10:13:31.896Z,2.50
2018-12-06T10:16:00.419Z,2.70
2018-12-06T10:18:28.937Z,2.73
2018-12-06T10:20:57.455Z,2.43
2018-12-06T10:23:26.186Z,2.30
2018-12-06T10:25:54.744Z,2.53
2018-12-06T10:28:24.473Z,2.70
2018-12-06T10:30:53.065Z,2.20
2018-12-06T10:33:21.673Z,2.30
2018-12-06T10:35:50.165Z,2.73
2018-12-06T10:38:18.704Z,2.03
2018-12-06T10:40:47.202Z,2.40
2018-12-06T10:43:15.711Z,2.57
2018-12-06T10:45:44.251Z,2.67
2018-12-06T10:48:12.720Z,2.10
2018-12-06T10:50:41.672Z,2.30
2018-12-06T10:53:10.191Z,2.50
2018-12-06T10:55:38.870Z,2.13
2018-12-06T10:58:07.473Z,2.30
2018-12-06T11:00:41.435Z,2.03
2018-12-06T11:03:16.173Z,1.90
2018-12-06T11:05:45.023Z,1.93
2018-12-06T11:08:13.578Z,2.30
2018-12-06T11:10:42.096Z,2.00
2018-12-06T11:13:10.906Z,2.20
2018-12-06T11:15:39.430Z,2.00
2018-12-06T11:18:07.937Z,2.30
2018-12-06T11:20:36.998Z,2.47
2018-12-06T11:23:05.579Z,2.40
2018-12-06T11:25:34.127Z,2.30
2018-12-06T11:28:02.991Z,2.30
2018-12-06T11:30:31.506Z,2.30
2018-12-06T11:33:00.288Z,2.50
2018-12-06T11:35:29.793Z,2.53
2018-12-06T11:37:58.331Z,2.10
2018-12-06T11:40:26.852Z,2.40
2018-12-06T11:42:55.336Z,2.33
2018-12-06T11:45:23.860Z,2.30
2018-12-06T11:47:52.743Z,2.43
2018-12-06T11:50:21.245Z,2.47
2018-12-06T11:52:49.920Z,2.23
2018-12-06T11:55:18.820Z,2.40
2018-12-06T11:57:47.712Z,2.30
2018-12-06T12:00:16.647Z,2.00
2018-12-06T12:02:45.213Z,2.57
2018-12-06T12:05:13.780Z,2.13
2018-12-06T12:07:42.324Z,2.70
2018-12-06T12:10:10.855Z,2.17
2018-12-06T12:12:39.395Z,2.67
2018-12-06T12:15:08.443Z,2.70
2018-12-06T12:17:36.914Z,2.50
2018-12-06T12:20:06.308Z,2.40
2018-12-06T12:22:34.973Z,2.37
2018-12-06T12:25:03.780Z,2.43
2018-12-06T12:27:33.260Z,2.50
2018-12-06T12:30:01.826Z,2.73
2018-12-06T12:32:30.318Z,2.60
2018-12-06T12:34:58.855Z,2.53
2018-12-06T12:37:27.383Z,2.70
2018-12-06T12:39:55.917Z,3.07
2018-12-06T12:42:24.449Z,2.70
2018-12-06T12:44:53.004Z,2.37
2018-12-06T12:47:21.555Z,2.20
2018-12-06T12:49:50.147Z,2.80
2018-12-06T12:52:19.108Z,2.30
2018-12-06T12:54:47.695Z,2.80
2018-12-06T12:57:16.247Z,2.50
2018-12-06T12:59:44.989Z,2.57
2018-12-06T13:02:13.563Z,2.53
2018-12-06T13:04:42.080Z,2.77
2018-12-06T13:07:12.402Z,2.40
2018-12-06T13:09:41.054Z,2.27
2018-12-06T13:12:09.998Z,2.70
2018-12-06T13:14:38.645Z,3.17
2018-12-06T13:17:07.209Z,2.60
2018-12-06T13:19:36.201Z,2.80
2018-12-06T13:22:04.865Z,3.00
2018-12-06T13:24:33.591Z,3.10
2018-12-06T13:27:02.184Z,3.27
2018-12-06T13:29:30.713Z,3.30
2018-12-06T13:31:59.248Z,2.90
2018-12-06T13:34:27.815Z,3.13
2018-12-06T13:36:56.385Z,3.47
2018-12-06T13:39:24.983Z,3.20
2018-12-06T13:41:53.863Z,3.10
2018-12-06T13:44:22.335Z,3.50
2018-12-06T13:46:50.815Z,3.50
2018-12-06T13:49:19.643Z,3.07
2018-12-06T13:51:48.213Z,3.43
2018-12-06T13:54:16.805Z,3.23
2018-12-06T13:56:45.342Z,3.13
2018-12-06T13:59:13.978Z,3.40
2018-12-06T14:01:43.439Z,3.60
2018-12-06T14:04:11.995Z,3.20
2018-12-06T14:06:41.284Z,3.77
2018-12-06T14:09:09.835Z,3.23
2018-12-06T14:11:38.413Z,3.50
2018-12-06T14:14:06.997Z,3.23
2018-12-06T14:16:35.489Z,3.73
2018-12-06T14:19:04.125Z,3.53
2018-12-06T14:21:32.599Z,3.03
2018-12-06T14:24:01.114Z,3.27
2018-12-06T14:26:29.691Z,3.17
2018-12-06T14:28:58.300Z,3.40
2018-12-06T14:31:26.849Z,3.23
2018-12-06T14:33:55.460Z,3.50
2018-12-06T14:36:23.947Z,2.90
2018-12-06T14:38:52.526Z,3.07
2018-12-06T14:41:21.174Z,2.80
2018-12-06T14:43:49.763Z,2.90
2018-12-06T14:46:18.330Z,2.90
2018-12-06T14:48:46.829Z,2.90
2018-12-06T14:51:15.343Z,3.00
2018-12-06T14:53:43.977Z,2.70
2018-12-06T14:56:12.494Z,2.93
2018-12-06T14:58:41.040Z,3.07
2018-12-06T15:01:09.535Z,2.60
2018-12-06T15:03:38.034Z,3.17
2018-12-06T15:06:06.590Z,3.07
2018-12-06T15:08:35.213Z,2.97
2018-12-06T15:11:04.947Z,2.70
2018-12-06T15:13:33.470Z,2.80
2018-12-06T15:16:02.066Z,2.97
2018-12-06T15:18:31.017Z,2.73
2018-12-06T15:20:59.966Z,2.87
2018-12-06T15:23:28.974Z,3.17
2018-12-06T15:25:57.546Z,3.10
2018-12-06T15:28:26.123Z,3.00
2018-12-06T15:30:54.717Z,3.27
2018-12-06T15:33:23.440Z,2.90
2018-12-06T15:35:52.001Z,3.20
2018-12-06T15:38:20.572Z,3.23
2018-12-06T15:40:49.435Z,3.30
2018-12-06T15:43:18.123Z,3.60
2018-12-06T15:45:48.709Z,4.17
2018-12-06T15:48:17.371Z,3.60
2018-12-06T15:50:47.474Z,3.50
2018-12-06T15:53:16.313Z,2.80
2018-12-06T15:55:45.923Z,2.80
2018-12-06T15:58:14.939Z,2.77
2018-12-06T16:00:43.642Z,2.93
2018-12-06T16:03:12.302Z,3.00
2018-12-06T16:05:40.933Z,3.10
2018-12-06T16:08:09.895Z,2.97
2018-12-06T16:10:38.361Z,3.00
2018-12-06T16:13:06.893Z,3.30
2018-12-06T16:15:35.481Z,3.20
2018-12-06T16:18:04.334Z,3.13
2018-12-06T16:20:33.147Z,3.33
2018-12-06T16:23:01.779Z,3.13
2018-12-06T16:25:31.292Z,2.90
2018-12-06T16:27:59.899Z,3.17
2018-12-06T16:30:28.481Z,3.20
2018-12-06T16:32:57.097Z,3.20
2018-12-06T16:35:25.819Z,3.27
2018-12-06T16:37:54.509Z,3.17
2018-12-06T16:40:23.781Z,2.97
2018-12-06T16:42:53.135Z,3.23
2018-12-06T16:45:22.026Z,3.43
2018-12-06T16:47:51.927Z,3.07
2018-12-06T16:50:20.488Z,3.37
2018-12-06T16:52:49.433Z,3.03
2018-12-06T16:55:18.184Z,3.60
2018-12-06T16:57:46.975Z,3.67
2018-12-06T17:00:15.934Z,3.77
2018-12-06T17:02:44.820Z,3.43
2018-12-06T17:05:13.509Z,3.37
2018-12-06T17:07:42.889Z,3.33
2018-12-06T17:10:11.522Z,3.57
2018-12-06T17:12:40.378Z,3.30
2018-12-06T17:15:09.248Z,3.80
2018-12-06T17:17:37.898Z,3.67
2018-12-06T17:20:07.563Z,3.67
2018-12-06T17:22:36.240Z,3.63
2018-12-06T17:25:05.868Z,4.10
2018-12-06T17:27:34.465Z,3.90
2018-12-06T17:30:03.345Z,3.90
2018-12-06T17:32:32.239Z,3.80
2018-12-06T17:35:01.100Z,3.73
2018-12-06T17:37:30.089Z,4.67
2018-12-06T17:40:01.193Z,4.30
2018-12-06T17:42:30.096Z,4.20
2018-12-06T17:45:01.276Z,4.40
2018-12-06T17:47:30.245Z,4.57
2018-12-06T17:50:03.081Z,4.10
2018-12-06T17:52:31.763Z,4.47
2018-12-06T17:55:01.926Z,4.67
2018-12-06T17:57:30.815Z,5.00
2018-12-06T18:02:33.201Z,5.27
2018-12-06T18:05:01.879Z,4.63
2018-12-06T18:07:31.458Z,4.93
2018-12-06T18:10:01.012Z,4.80
2018-12-06T18:12:29.673Z,4.97
2018-12-06T18:14:58.977Z,4.30
2018-12-06T18:17:27.812Z,4.73
2018-12-06T18:19:56.398Z,5.23
2018-12-06T18:22:25.152Z,5.07
2018-12-06T18:24:53.773Z,5.43
2018-12-06T18:27:23.236Z,5.00
2018-12-06T18:29:51.842Z,5.93
2018-12-06T18:32:20.473Z,4.87
2018-12-06T18:34:49.214Z,5.43
2018-12-06T18:37:18.055Z,5.40
2018-12-06T18:39:46.918Z,5.23
2018-12-06T18:42:15.673Z,5.33
2018-12-06T18:44:44.268Z,5.27
2018-12-06T18:47:12.972Z,5.60
2018-12-06T18:49:41.911Z,4.57
2018-12-06T18:52:10.744Z,5.10
2018-12-06T18:54:39.552Z,4.30
2018-12-06T18:57:08.379Z,3.70
2018-12-06T18:59:39.880Z,3.53
2018-12-06T19:02:08.553Z,3.60
2018-12-06T19:04:37.217Z,3.70
2018-12-06T19:07:07.325Z,3.63
2018-12-06T19:09:36.374Z,3.50
2018-12-06T19:12:06.208Z,6.57
2018-12-06T19:14:34.878Z,5.63
2018-12-06T19:17:05.383Z,4.47
2018-12-06T19:19:34.348Z,4.40
2018-12-06T19:22:03.412Z,4.30
2018-12-06T19:24:32.409Z,4.40
2018-12-06T19:27:02.900Z,4.20
2018-12-06T19:29:32.046Z,3.53
2018-12-06T19:32:00.950Z,3.70
2018-12-06T19:34:29.984Z,3.70
2018-12-06T19:36:59.037Z,3.80
2018-12-06T19:39:27.702Z,3.57
2018-12-06T19:41:56.448Z,3.50
2018-12-06T19:44:25.286Z,3.30
2018-12-06T19:46:54.286Z,3.43
2018-12-06T19:49:23.133Z,3.30
2018-12-06T19:51:52.472Z,2.77
2018-12-06T19:54:21.653Z,3.13
2018-12-06T19:56:50.492Z,2.90
2018-12-06T19:59:19.076Z,2.90
2018-12-06T20:01:47.993Z,2.77
2018-12-06T20:04:16.632Z,2.90
2018-12-06T20:06:45.886Z,2.80
2018-12-06T20:09:14.661Z,2.87
2018-12-06T20:11:43.323Z,3.37
2018-12-06T20:14:12.774Z,3.00
2018-12-06T20:16:41.891Z,3.30
2018-12-06T20:19:11.953Z,3.00
2018-12-06T20:21:40.693Z,2.97
2018-12-06T20:24:09.707Z,3.17
2018-12-06T20:26:38.784Z,3.00
2018-12-06T20:29:07.623Z,2.80
2018-12-06T20:31:36.429Z,2.90
2018-12-06T20:34:05.281Z,2.90
2018-12-06T20:36:34.123Z,2.67
2018-12-06T20:39:03.194Z,2.50
2018-12-06T20:41:32.147Z,2.40
2018-12-06T20:44:00.798Z,2.57
2018-12-06T20:46:29.969Z,2.60
2018-12-06T20:48:58.558Z,2.30
2018-12-06T20:51:29.166Z,2.63
2018-12-06T20:53:58.508Z,2.30
2018-12-06T20:56:27.154Z,2.00
2018-12-06T20:58:55.810Z,2.47
2018-12-06T21:01:24.395Z,2.30
2018-12-06T21:03:53.170Z,2.40
2018-12-06T21:06:22.243Z,1.93
2018-12-06T21:08:51.123Z,1.67
2018-12-06T21:11:20.326Z,1.93
2018-12-06T21:13:48.939Z,2.13
2018-12-06T21:16:17.907Z,1.70
2018-12-06T21:18:46.517Z,1.80
2018-12-06T21:21:16.233Z,1.87
2018-12-06T21:23:45.400Z,1.73
2018-12-06T21:26:14.136Z,3.80
2018-12-06T21:28:42.792Z,3.30
2018-12-06T21:31:11.402Z,2.03
2018-12-06T21:33:40.590Z,1.87
2018-12-06T21:36:09.343Z,1.57
2018-12-06T21:38:38.521Z,1.47
2018-12-06T21:41:07.173Z,1.50
2018-12-06T21:43:36.441Z,1.30
2018-12-06T21:46:05.306Z,1.70
2018-12-06T21:48:34.408Z,1.60
2018-12-06T21:51:06.448Z,1.60
2018-12-06T21:53:35.569Z,1.67
2018-12-06T21:56:04.828Z,1.37
2018-12-06T21:58:37.559Z,1.37
2018-12-06T22:01:13.167Z,1.80
2018-12-06T22:03:42.876Z,1.30
2018-12-06T22:06:13.227Z,1.33
2018-12-06T22:08:44.155Z,1.83
2018-12-06T22:11:14.190Z,1.80
2018-12-06T22:13:43.350Z,1.80
2018-12-06T22:16:12.138Z,1.47
2018-12-06T22:18:41.871Z,1.60
2018-12-06T22:21:11.693Z,1.60
2018-12-06T22:23:40.364Z,1.20
2018-12-06T22:26:09.735Z,1.20
2018-12-06T22:28:38.454Z,1.10
2018-12-06T22:31:08.459Z,1.10
2018-12-06T22:33:38.556Z,1.10
2018-12-06T22:36:07.399Z,1.20
2018-12-06T22:38:36.260Z,1.10
2018-12-06T22:41:05.697Z,1.10
2018-12-06T22:43:34.770Z,1.03
2018-12-06T22:46:03.461Z,1.07
2018-12-06T22:48:32.270Z,1.33
2018-12-06T22:51:01.748Z,1.43
2018-12-06T22:53:30.457Z,1.27
2018-12-06T22:56:00.028Z,1.10
2018-12-06T22:58:28.710Z,1.00
2018-12-06T23:00:59.772Z,0.90
2018-12-06T23:03:29.728Z,1.07
2018-12-06T23:05:58.448Z,1.10
2018-12-06T23:08:28.666Z,1.30
2018-12-06T23:10:57.370Z,0.80
2018-12-06T23:13:25.888Z,0.80
2018-12-06T23:15:54.491Z,1.30
2018-12-06T23:18:22.985Z,1.30
2018-12-06T23:20:51.525Z,1.07
2018-12-06T23:23:20.008Z,0.87
2018-12-06T23:25:48.545Z,1.00
2018-12-06T23:28:17.072Z,1.20
2018-12-06T23:30:45.657Z,1.33
2018-12-06T23:33:14.680Z,1.33
2018-12-06T23:35:43.236Z,1.10
2018-12-06T23:38:11.757Z,1.30
2018-12-06T23:40:40.506Z,0.90
2018-12-06T23:43:09.113Z,0.87
2018-12-06T23:45:37.750Z,1.10
2018-12-06T23:48:06.374Z,1.20
2018-12-06T23:50:35.338Z,1.00
2018-12-06T23:53:04.011Z,0.87
2018-12-06T23:55:32.653Z,0.87
2018-12-06T23:58:01.266Z,0.83
